createdAt,value
2023-02-18T00:01:23.607Z,7.28
2023-02-18T00:03:51.642Z,8.00
2023-02-18T00:06:25.815Z,6.85
2023-02-18T00:08:53.209Z,6.97
2023-02-18T00:11:23.035Z,6.95
2023-02-18T00:13:52.043Z,7.07
2023-02-18T00:16:19.133Z,8.68
2023-02-18T00:18:45.948Z,8.93
2023-02-18T00:21:14.529Z,8.30
2023-02-18T00:23:44.123Z,9.50
2023-02-18T00:26:14.262Z,8.50
2023-02-18T00:28:42.142Z,9.13
2023-02-18T00:31:12.666Z,8.85
2023-02-18T00:33:40.614Z,9.70
2023-02-18T00:36:10.708Z,9.50
2023-02-18T00:38:37.706Z,8.88
2023-02-18T00:41:05.745Z,10.65
2023-02-18T00:43:32.577Z,10.77
2023-02-18T00:46:00.805Z,9.60
2023-02-18T00:48:28.244Z,10.75
2023-02-18T00:50:55.356Z,10.95
2023-02-18T00:53:22.962Z,11.13
2023-02-18T00:55:49.904Z,9.80
2023-02-18T00:58:17.211Z,9.48
2023-02-18T01:00:44.560Z,9.23
2023-02-18T01:03:12.374Z,9.77
2023-02-18T01:05:40.340Z,9.82
2023-02-18T01:08:10.443Z,9.30
2023-02-18T01:10:42.163Z,10.55
2023-02-18T01:13:09.660Z,11.70
2023-02-18T01:15:36.881Z,10.30
2023-02-18T01:18:04.750Z,11.85
2023-02-18T01:20:31.798Z,9.77
2023-02-18T01:22:58.637Z,11.52
2023-02-18T01:25:25.691Z,11.30
2023-02-18T01:27:52.729Z,11.68
2023-02-18T01:30:20.905Z,11.50
2023-02-18T01:32:48.874Z,11.38
2023-02-18T01:35:18.706Z,12.52
2023-02-18T01:37:46.890Z,11.65
2023-02-18T01:40:17.633Z,11.80
2023-02-18T01:42:45.241Z,12.13
2023-02-18T01:45:43.609Z,10.48
2023-02-18T01:48:12.673Z,11.82
2023-02-18T01:50:46.475Z,10.27
2023-02-18T01:53:16.791Z,12.50
2023-02-18T01:55:45.448Z,12.35
2023-02-18T01:58:14.002Z,15.18
2023-02-18T02:00:42.559Z,12.93
2023-02-18T02:03:09.897Z,12.55
2023-02-18T02:05:37.000Z,13.20
2023-02-18T02:08:05.215Z,14.63
2023-02-18T02:11:01.507Z,14.68
2023-02-18T02:13:48.499Z,15.13
2023-02-18T02:16:49.916Z,16.35
2023-02-18T02:19:38.674Z,16.23
2023-02-18T02:22:48.832Z,16.70
2023-02-18T02:25:19.740Z,19.30
2023-02-18T02:27:49.685Z,19.55
2023-02-18T02:30:45.498Z,20.80
2023-02-18T02:33:40.855Z,20.27
2023-02-18T02:36:13.815Z,20.63
2023-02-18T02:38:59.034Z,21.20
2023-02-18T02:41:59.289Z,23.02
2023-02-18T02:45:03.505Z,22.40
2023-02-18T02:48:02.272Z,24.23
2023-02-18T02:50:38.638Z,24.25
2023-02-18T02:53:29.899Z,21.92
2023-02-18T02:55:56.712Z,23.00
2023-02-18T02:58:23.923Z,22.80
2023-02-18T03:00:59.626Z,23.23
2023-02-18T03:03:50.143Z,20.30
2023-02-18T03:06:27.637Z,23.55
2023-02-18T03:09:34.958Z,24.35
2023-02-18T03:12:13.019Z,25.00
2023-02-18T03:14:53.413Z,24.45
2023-02-18T03:17:51.814Z,22.67
2023-02-18T03:20:43.814Z,24.23
2023-02-18T03:23:18.545Z,22.55
2023-02-18T03:25:47.138Z,24.63
2023-02-18T03:28:32.249Z,23.23
2023-02-18T03:31:05.721Z,21.58
2023-02-18T03:33:46.732Z,22.73
2023-02-18T03:36:13.974Z,25.70
2023-02-18T03:38:47.585Z,21.33
2023-02-18T03:41:16.120Z,24.02
2023-02-18T03:44:00.774Z,23.17
2023-02-18T03:46:29.295Z,23.17
2023-02-18T03:48:56.805Z,22.08
2023-02-18T03:51:24.986Z,22.13
2023-02-18T03:53:52.183Z,20.10
2023-02-18T03:56:19.824Z,20.50
2023-02-18T03:58:47.819Z,20.20
2023-02-18T04:03:51.538Z,18.58
2023-02-18T04:06:18.579Z,17.58
2023-02-18T04:08:45.228Z,16.75
2023-02-18T04:11:11.976Z,16.38
2023-02-18T04:13:38.861Z,14.00
2023-02-18T04:16:06.371Z,14.85
2023-02-18T04:18:33.473Z,17.67
2023-02-18T04:21:00.186Z,15.32
2023-02-18T04:23:28.299Z,14.40
2023-02-18T04:25:55.930Z,12.65
2023-02-18T04:28:22.647Z,13.48
2023-02-18T04:30:50.087Z,9.77
2023-02-18T04:33:17.021Z,10.25
2023-02-18T04:35:44.027Z,9.63
2023-02-18T04:38:11.820Z,8.35
2023-02-18T04:40:39.259Z,7.85
2023-02-18T04:43:06.186Z,7.05
2023-02-18T04:45:33.069Z,5.28
2023-02-18T04:47:59.867Z,4.80
2023-02-18T04:50:26.633Z,4.93
2023-02-18T04:52:53.363Z,5.47
2023-02-18T04:55:20.214Z,3.60
2023-02-18T04:57:47.043Z,4.95
2023-02-18T05:00:17.097Z,5.88
2023-02-18T05:02:45.048Z,7.47
2023-02-18T05:05:12.587Z,7.95
2023-02-18T05:07:41.580Z,7.55
2023-02-18T05:10:11.373Z,9.93
2023-02-18T05:12:38.197Z,9.23
2023-02-18T05:15:05.734Z,10.23
2023-02-18T05:17:32.479Z,11.07
2023-02-18T05:19:59.298Z,12.75
2023-02-18T05:22:29.050Z,13.98
2023-02-18T05:24:55.969Z,14.43
2023-02-18T05:27:22.776Z,10.70
2023-02-18T05:29:50.058Z,10.40
2023-02-18T05:32:16.855Z,9.43
2023-02-18T05:34:43.916Z,9.05
2023-02-18T05:37:10.776Z,9.35
2023-02-18T05:39:37.609Z,7.93
2023-02-18T05:42:04.664Z,6.82
2023-02-18T05:44:31.705Z,6.05
2023-02-18T05:46:59.781Z,5.38
2023-02-18T05:49:28.490Z,7.43
2023-02-18T05:51:55.542Z,6.30
2023-02-18T05:54:22.464Z,6.68
2023-02-18T05:56:49.775Z,5.90
2023-02-18T05:59:17.153Z,5.90
2023-02-18T06:01:44.896Z,6.07
2023-02-18T06:04:12.315Z,5.07
2023-02-18T06:06:39.575Z,5.57
2023-02-18T06:09:07.365Z,5.80
2023-02-18T06:11:34.828Z,6.35
2023-02-18T06:14:02.218Z,5.22
2023-02-18T06:16:29.393Z,6.50
2023-02-18T06:18:57.792Z,5.38
2023-02-18T06:21:25.113Z,5.97
2023-02-18T06:23:52.368Z,5.70
2023-02-18T06:26:19.484Z,6.22
2023-02-18T06:28:46.398Z,5.20
2023-02-18T06:31:13.601Z,5.22
2023-02-18T06:33:40.574Z,5.22
2023-02-18T06:36:09.727Z,5.10
2023-02-18T06:38:38.704Z,4.32
2023-02-18T06:41:05.887Z,5.63
2023-02-18T06:43:33.002Z,5.55
2023-02-18T06:46:00.092Z,5.32
2023-02-18T06:48:27.122Z,5.78
2023-02-18T06:50:53.864Z,5.47
2023-02-18T06:53:20.596Z,5.40
2023-02-18T06:55:47.413Z,5.15
2023-02-18T06:58:15.059Z,5.93
2023-02-18T07:00:42.797Z,5.75
2023-02-18T07:03:12.815Z,5.35
2023-02-18T07:05:39.896Z,5.20
2023-02-18T07:08:06.936Z,5.85
2023-02-18T07:10:34.224Z,5.53
2023-02-18T07:13:00.950Z,6.63
2023-02-18T07:15:28.158Z,6.05
2023-02-18T07:17:55.359Z,5.47
2023-02-18T07:20:23.467Z,5.22
2023-02-18T07:22:51.295Z,5.30
2023-02-18T07:25:22.093Z,4.22
2023-02-18T07:27:51.122Z,4.22
2023-02-18T07:30:19.191Z,4.38
2023-02-18T07:32:46.233Z,4.03
2023-02-18T07:35:18.058Z,3.58
2023-02-18T07:37:47.219Z,4.60
2023-02-18T07:40:17.688Z,3.92
2023-02-18T07:42:45.038Z,4.07
2023-02-18T07:45:12.744Z,3.28
2023-02-18T07:47:40.162Z,3.20
2023-02-18T07:50:08.121Z,4.20
2023-02-18T07:52:35.080Z,4.43
2023-02-18T07:55:01.982Z,3.30
2023-02-18T07:57:28.834Z,2.92
2023-02-18T07:59:55.827Z,2.83
2023-02-18T08:02:24.331Z,3.70
2023-02-18T08:04:52.234Z,2.75
2023-02-18T08:07:22.041Z,2.55
2023-02-18T08:09:51.164Z,2.28
2023-02-18T08:12:18.464Z,3.40
2023-02-18T08:14:45.342Z,1.80
2023-02-18T08:17:12.756Z,2.05
2023-02-18T08:19:39.822Z,1.95
2023-02-18T08:22:06.849Z,2.78
2023-02-18T08:24:33.685Z,2.03
2023-02-18T08:27:03.125Z,1.50
2023-02-18T08:29:30.359Z,2.08
2023-02-18T08:31:59.872Z,1.42
2023-02-18T08:34:27.480Z,2.47
2023-02-18T08:36:54.387Z,2.10
2023-02-18T08:39:21.163Z,1.60
2023-02-18T08:41:47.936Z,1.73
2023-02-18T08:44:14.721Z,1.58
2023-02-18T08:46:41.516Z,1.17
2023-02-18T08:49:08.920Z,2.05
2023-02-18T08:51:35.883Z,1.33
2023-02-18T08:54:03.092Z,1.13
2023-02-18T08:56:30.059Z,1.42
2023-02-18T08:58:56.805Z,2.38
2023-02-18T09:01:23.789Z,1.55
2023-02-18T09:03:51.362Z,1.25
2023-02-18T09:06:18.397Z,1.67
2023-02-18T09:08:45.264Z,2.33
2023-02-18T09:11:12.366Z,1.58
2023-02-18T09:13:39.907Z,1.42
2023-02-18T09:16:14.037Z,2.28
2023-02-18T09:18:41.168Z,1.35
2023-02-18T09:21:09.989Z,1.30
2023-02-18T09:23:37.532Z,1.48
2023-02-18T09:26:06.281Z,1.63
2023-02-18T09:28:33.853Z,1.45
2023-02-18T09:31:06.789Z,1.33
2023-02-18T09:33:38.488Z,1.70
2023-02-18T09:36:05.643Z,1.15
2023-02-18T09:38:32.354Z,1.70
2023-02-18T09:41:01.592Z,1.42
2023-02-18T09:43:43.951Z,2.10
2023-02-18T09:46:36.548Z,2.05
2023-02-18T09:49:29.577Z,2.67
2023-02-18T09:52:01.849Z,2.15
2023-02-18T09:54:28.805Z,1.10
2023-02-18T09:56:55.834Z,1.88
2023-02-18T09:59:25.642Z,1.10
2023-02-18T10:01:54.783Z,1.75
2023-02-18T10:04:32.230Z,2.15
2023-02-18T10:07:00.410Z,1.63
2023-02-18T10:09:32.382Z,1.63
2023-02-18T10:12:13.998Z,1.60
2023-02-18T10:14:41.535Z,2.00
2023-02-18T10:17:14.384Z,1.92
2023-02-18T10:19:43.481Z,1.77
2023-02-18T10:22:15.048Z,1.95
2023-02-18T10:25:17.566Z,1.67
2023-02-18T10:27:46.495Z,1.35
2023-02-18T10:30:16.446Z,1.27
2023-02-18T10:32:45.310Z,1.90
2023-02-18T10:35:34.575Z,1.50
2023-02-18T10:38:20.186Z,1.85
2023-02-18T10:40:54.039Z,1.63
2023-02-18T10:43:31.558Z,1.63
2023-02-18T10:46:35.060Z,1.23
2023-02-18T10:49:11.062Z,2.22
2023-02-18T10:51:43.868Z,1.67
2023-02-18T10:54:10.762Z,1.85
2023-02-18T10:56:50.012Z,1.50
2023-02-18T10:59:28.028Z,1.50
2023-02-18T11:02:02.715Z,2.15
2023-02-18T11:04:39.898Z,1.92
2023-02-18T11:07:15.030Z,1.52
2023-02-18T11:09:46.524Z,1.90
2023-02-18T11:12:54.242Z,2.35
2023-02-18T11:15:27.006Z,1.45
2023-02-18T11:17:57.009Z,2.40
2023-02-18T11:20:25.965Z,0.95
2023-02-18T11:22:57.728Z,1.58
2023-02-18T11:25:28.008Z,1.38
2023-02-18T11:28:28.515Z,1.30
2023-02-18T11:31:00.212Z,2.05
2023-02-18T11:33:37.868Z,2.15
2023-02-18T11:36:17.687Z,1.27
2023-02-18T11:38:51.546Z,1.83
2023-02-18T11:41:22.149Z,1.15
2023-02-18T11:43:53.184Z,0.82
2023-02-18T11:46:25.184Z,1.25
2023-02-18T11:48:52.064Z,1.48
2023-02-18T11:51:30.788Z,1.10
2023-02-18T11:54:04.693Z,1.60
2023-02-18T11:56:33.950Z,1.55
2023-02-18T11:59:02.794Z,1.83
2023-02-18T12:01:43.859Z,1.02
2023-02-18T12:04:26.632Z,1.45
2023-02-18T12:07:25.639Z,1.55
2023-02-18T12:09:59.295Z,2.25
2023-02-18T12:12:41.535Z,1.70
2023-02-18T12:15:15.333Z,1.00
2023-02-18T12:18:11.737Z,1.13
2023-02-18T12:20:58.820Z,1.75
2023-02-18T12:24:04.448Z,1.88
2023-02-18T12:26:57.703Z,1.83
2023-02-18T12:29:37.745Z,1.05
2023-02-18T12:32:25.183Z,0.73
2023-02-18T12:35:03.714Z,1.75
2023-02-18T12:37:46.211Z,1.48
2023-02-18T12:40:44.153Z,2.33
2023-02-18T12:43:14.231Z,1.70
2023-02-18T12:45:56.609Z,1.42
2023-02-18T12:48:40.119Z,1.20
2023-02-18T12:51:57.552Z,1.92
2023-02-18T12:54:47.962Z,1.52
2023-02-18T12:57:29.961Z,1.25
2023-02-18T13:00:18.281Z,1.55
2023-02-18T13:02:51.522Z,1.70
2023-02-18T13:05:39.724Z,2.20
2023-02-18T13:08:28.497Z,1.85
2023-02-18T13:11:19.983Z,1.95
2023-02-18T13:14:13.570Z,1.80
2023-02-18T13:16:44.655Z,1.60
2023-02-18T13:19:22.031Z,1.65
2023-02-18T13:21:54.155Z,1.65
2023-02-18T13:24:39.165Z,1.20
2023-02-18T13:27:05.986Z,1.30
2023-02-18T13:30:23.892Z,1.10
2023-02-18T13:33:27.211Z,2.20
2023-02-18T13:36:31.746Z,1.75
2023-02-18T13:39:06.175Z,1.20
2023-02-18T13:41:39.535Z,2.72
2023-02-18T13:44:16.152Z,1.67
2023-02-18T13:46:52.672Z,1.27
2023-02-18T13:49:25.894Z,2.30
2023-02-18T13:51:55.511Z,2.05
2023-02-18T13:54:42.007Z,1.98
2023-02-18T13:57:21.813Z,1.10
2023-02-18T14:00:06.636Z,1.83
2023-02-18T14:02:38.754Z,2.00
2023-02-18T14:05:08.975Z,1.30
2023-02-18T14:07:44.581Z,1.20
2023-02-18T14:10:17.638Z,1.50
2023-02-18T14:13:13.843Z,3.10
2023-02-18T14:15:53.359Z,1.58
2023-02-18T14:18:32.338Z,1.77
2023-02-18T14:21:20.060Z,1.98
2023-02-18T14:24:01.962Z,1.13
2023-02-18T14:26:44.361Z,1.13
2023-02-18T14:29:13.132Z,1.58
2023-02-18T14:31:52.444Z,1.60
2023-02-18T14:34:51.478Z,1.80
2023-02-18T14:37:48.218Z,1.65
2023-02-18T14:40:24.612Z,1.30
2023-02-18T14:43:13.598Z,2.17
2023-02-18T14:46:01.916Z,1.88
2023-02-18T14:49:13.620Z,1.65
2023-02-18T14:51:42.258Z,1.73
2023-02-18T14:54:14.352Z,1.88
2023-02-18T14:57:13.395Z,1.85
2023-02-18T14:59:44.293Z,1.63
2023-02-18T15:02:38.841Z,1.88
2023-02-18T15:05:15.206Z,1.30
2023-02-18T15:07:42.290Z,1.35
2023-02-18T15:10:16.334Z,2.25
2023-02-18T15:12:43.332Z,1.70
2023-02-18T15:15:15.231Z,2.13
2023-02-18T15:17:48.573Z,2.47
2023-02-18T15:20:16.556Z,1.60
2023-02-18T15:22:43.573Z,1.90
2023-02-18T15:25:16.390Z,1.63
2023-02-18T15:27:45.995Z,2.72
2023-02-18T15:30:19.651Z,1.92
2023-02-18T15:32:58.211Z,1.80
2023-02-18T15:35:31.807Z,1.95
2023-02-18T15:38:01.619Z,2.30
2023-02-18T15:40:35.083Z,1.67
2023-02-18T15:43:05.539Z,2.03
2023-02-18T15:45:36.652Z,2.17
2023-02-18T15:48:04.874Z,2.70
2023-02-18T15:53:18.664Z,1.77
2023-02-18T15:55:54.258Z,1.48
2023-02-18T15:58:39.489Z,1.88
2023-02-18T16:01:08.326Z,1.58
2023-02-18T16:03:41.480Z,1.90
2023-02-18T16:06:31.824Z,1.42
2023-02-18T16:09:19.260Z,2.33
2023-02-18T16:11:50.557Z,2.55
2023-02-18T16:14:45.470Z,2.00
2023-02-18T16:17:12.308Z,2.15
2023-02-18T16:20:04.809Z,1.80
2023-02-18T16:22:33.648Z,2.30
2023-02-18T16:25:07.257Z,1.42
2023-02-18T16:27:37.536Z,1.98
2023-02-18T16:30:17.105Z,1.70
2023-02-18T16:32:44.546Z,1.67
2023-02-18T16:35:12.917Z,2.47
2023-02-18T16:37:41.788Z,2.00
2023-02-18T16:40:20.344Z,2.10
2023-02-18T16:42:47.385Z,1.77
2023-02-18T16:45:14.496Z,2.33
2023-02-18T16:47:41.606Z,2.08
2023-02-18T16:50:21.010Z,1.40
2023-02-18T16:52:48.933Z,2.40
2023-02-18T16:55:28.923Z,2.08
2023-02-18T16:57:56.654Z,2.03
2023-02-18T17:00:24.426Z,1.75
2023-02-18T17:02:54.849Z,1.60
2023-02-18T17:05:31.431Z,2.08
2023-02-18T17:08:17.299Z,1.40
2023-02-18T17:10:45.204Z,1.98
2023-02-18T17:13:20.200Z,2.13
2023-02-18T17:15:48.621Z,1.88
2023-02-18T17:18:15.711Z,2.58
2023-02-18T17:20:42.707Z,1.75
2023-02-18T17:23:22.154Z,2.22
2023-02-18T17:25:51.024Z,1.90
2023-02-18T17:28:19.505Z,2.63
2023-02-18T17:30:58.676Z,1.95
2023-02-18T17:33:25.806Z,1.90
2023-02-18T17:35:52.844Z,2.42
2023-02-18T17:38:20.149Z,2.40
2023-02-18T17:40:48.862Z,2.92
2023-02-18T17:43:17.439Z,2.33
2023-02-18T17:45:51.233Z,2.00
2023-02-18T17:48:18.385Z,1.85
2023-02-18T17:50:45.239Z,3.33
2023-02-18T17:53:13.447Z,2.63
2023-02-18T17:58:08.517Z,2.55
2023-02-18T18:00:38.851Z,3.55
2023-02-18T18:03:05.937Z,2.58
2023-02-18T18:05:35.889Z,3.55
2023-02-18T18:08:04.753Z,3.22
2023-02-18T18:10:34.870Z,4.57
2023-02-18T18:13:04.571Z,2.83
2023-02-18T18:15:39.860Z,3.88
2023-02-18T18:18:07.457Z,3.47
2023-02-18T18:20:36.098Z,3.75
2023-02-18T18:23:05.312Z,3.72
2023-02-18T18:25:44.214Z,3.38
2023-02-18T18:28:11.386Z,3.80
2023-02-18T18:30:41.202Z,4.50
2023-02-18T18:33:24.935Z,3.60
2023-02-18T18:35:53.938Z,3.78
2023-02-18T18:38:22.749Z,4.43
2023-02-18T18:40:50.808Z,4.13
2023-02-18T18:43:24.191Z,3.42
2023-02-18T18:45:52.204Z,4.60
2023-02-18T18:48:20.394Z,4.97
2023-02-18T18:50:48.185Z,5.07
2023-02-18T18:53:20.795Z,4.82
2023-02-18T18:55:48.097Z,4.75
2023-02-18T18:58:17.114Z,5.95
2023-02-18T19:00:44.639Z,5.35
2023-02-18T19:03:12.997Z,6.13
2023-02-18T19:08:09.436Z,6.30
2023-02-18T19:10:39.063Z,7.22
2023-02-18T19:13:13.441Z,7.10
2023-02-18T19:18:08.128Z,7.68
2023-02-18T19:20:38.634Z,7.90
2023-02-18T19:23:05.628Z,8.48
2023-02-18T19:25:32.715Z,9.05
2023-02-18T19:27:59.383Z,9.82
2023-02-18T19:30:29.041Z,8.82
2023-02-18T19:32:58.204Z,9.07
2023-02-18T19:35:26.105Z,10.15
2023-02-18T19:37:53.512Z,8.75
2023-02-18T19:40:23.581Z,8.38
2023-02-18T19:42:51.132Z,11.55
2023-02-18T19:45:18.506Z,8.63
2023-02-18T19:47:46.187Z,8.93
2023-02-18T19:50:15.739Z,7.43
2023-02-18T19:52:42.897Z,9.00
2023-02-18T19:55:11.218Z,8.85
2023-02-18T19:57:38.310Z,7.63
2023-02-18T20:00:10.557Z,6.88
2023-02-18T20:02:37.436Z,7.88
2023-02-18T20:05:04.327Z,7.88
2023-02-18T20:07:31.443Z,7.25
2023-02-18T20:09:58.196Z,7.82
2023-02-18T20:12:25.141Z,6.30
2023-02-18T20:14:52.159Z,6.32
2023-02-18T20:17:19.514Z,5.90
2023-02-18T20:19:46.576Z,6.72
2023-02-18T20:22:13.425Z,5.70
2023-02-18T20:24:40.907Z,6.30
2023-02-18T20:27:11.208Z,5.70
2023-02-18T20:29:37.955Z,4.78
2023-02-18T20:32:05.501Z,6.90
2023-02-18T20:34:33.032Z,5.82
2023-02-18T20:37:01.090Z,5.60
2023-02-18T20:39:28.212Z,6.90
2023-02-18T20:41:54.792Z,5.57
2023-02-18T20:44:21.927Z,6.60
2023-02-18T20:46:49.995Z,7.57
2023-02-18T20:49:20.270Z,7.47
2023-02-18T20:51:47.628Z,7.15
2023-02-18T20:54:19.773Z,6.93
2023-02-18T20:56:49.546Z,7.57
2023-02-18T20:59:19.192Z,6.65
2023-02-18T21:01:46.997Z,7.63
2023-02-18T21:04:23.656Z,7.65
2023-02-18T21:06:56.830Z,7.88
2023-02-18T21:09:25.404Z,8.25
2023-02-18T21:11:55.946Z,6.63
2023-02-18T21:14:28.520Z,9.73
2023-02-18T21:16:55.569Z,7.47
2023-02-18T21:19:24.328Z,6.90
2023-02-18T21:21:58.709Z,7.32
2023-02-18T21:26:58.081Z,7.03
2023-02-18T21:29:29.244Z,7.13
2023-02-18T21:31:58.529Z,7.75
2023-02-18T21:34:26.994Z,7.40
2023-02-18T21:37:04.509Z,6.28
2023-02-18T21:39:31.292Z,5.80
2023-02-18T21:42:00.554Z,6.38
2023-02-18T21:44:42.352Z,5.10
2023-02-18T21:47:12.364Z,4.78
2023-02-18T21:49:39.194Z,5.25
2023-02-18T21:54:57.327Z,5.43
2023-02-18T21:57:25.576Z,6.90
2023-02-18T22:00:19.697Z,6.25
2023-02-18T22:03:06.850Z,5.40
2023-02-18T22:05:34.201Z,6.75
2023-02-18T22:11:11.888Z,5.85
2023-02-18T22:13:39.388Z,5.15
2023-02-18T22:16:10.978Z,6.35
2023-02-18T22:18:39.089Z,5.63
2023-02-18T22:21:08.743Z,4.05
2023-02-18T22:23:39.512Z,5.13
2023-02-18T22:26:11.831Z,4.80
2023-02-18T22:28:47.808Z,5.32
2023-02-18T22:31:17.222Z,4.65
2023-02-18T22:33:46.631Z,4.80
2023-02-18T22:36:18.876Z,5.07
2023-02-18T22:38:46.988Z,5.43
2023-02-18T22:41:16.611Z,3.60
2023-02-18T22:43:49.096Z,5.95
2023-02-18T22:46:18.005Z,4.40
2023-02-18T22:48:52.538Z,4.72
2023-02-18T22:51:29.845Z,4.50
2023-02-18T22:54:00.850Z,4.50
2023-02-18T22:56:31.823Z,5.32
2023-02-18T22:59:01.578Z,5.43
2023-02-18T23:01:40.506Z,3.80
2023-02-18T23:04:13.657Z,4.63
2023-02-18T23:06:43.092Z,4.25
2023-02-18T23:09:14.955Z,4.68
2023-02-18T23:11:42.524Z,4.85
2023-02-18T23:14:19.739Z,4.50
2023-02-18T23:17:15.051Z,4.60
2023-02-18T23:19:47.906Z,5.05
2023-02-18T23:25:25.784Z,4.28
2023-02-18T23:28:02.060Z,4.75
2023-02-18T23:30:31.638Z,3.75
2023-02-18T23:32:59.034Z,4.60
2023-02-18T23:35:26.068Z,4.50
2023-02-18T23:38:06.326Z,4.95
2023-02-18T23:40:33.122Z,3.97
2023-02-18T23:43:00.275Z,4.30
2023-02-18T23:45:27.429Z,3.85
2023-02-18T23:47:54.254Z,4.25
2023-02-18T23:50:22.094Z,4.63
2023-02-18T23:52:50.745Z,5.25
2023-02-18T23:55:28.437Z,4.85
2023-02-18T23:57:55.211Z,4.97
